Terminal Aerodrome Forecast
Issued by NWS Twin Cities, MN

Home | Current Version | Previous Version | Text Only | Print | Product List | Glossary Off
Versions: 1 2 3 4 5 6 7 8 9 10 11 12 13 14 15 16 17 18

000
FTUS43 KMPX 301100
TAFSTC
TAF
KSTC 301138Z 3012/3112 03003KT P6SM VCSH BKN035 OVC050
      TEMPO 3012/3014 4SM BR BKN003
     FM301600 35005KT P6SM SCT012 OVC020
     FM302000 VRB03KT P6SM FEW020 BKN040
     FM310000 VRB03KT P6SM FEW250
     FM310800 12004KT 3SM BR SCT200=

USA.gov is the U.S. government's official web portal to all federal, state and local government web resources and services.